Time;durP1;ratioP1;P1;durP2;ratioP2;P2;SDS_P1;SDS_P2;PMS_P1;PMS_P2;Temp;Humidity;BMP_temperature;BMP_pressure;BME280_temperature;BME280_humidity;BME280_pressure;Samples;Min_cycle;Max_cycle;Signal;HPM_P1;HPM_P2
2022/04/08 00:01:16;;;;;;;11.40;1.58;;;7.50;99.90;;;;;;5077366;28;20063;-57
2022/04/08 00:03:42;;;;;;;5.55;1.77;;;7.50;99.90;;;;;;5077301;28;20108;-57
2022/04/08 00:06:08;;;;;;;5.80;1.60;;;7.50;99.90;;;;;;5076420;28;20036;-57
2022/04/08 00:08:35;;;;;;;3.28;1.45;;;7.40;99.90;;;;;;5077078;28;20097;-58
2022/04/08 00:11:00;;;;;;;8.45;1.85;;;7.50;99.90;;;;;;5059635;28;20058;-58
2022/04/08 00:13:27;;;;;;;8.32;1.98;;;7.40;99.90;;;;;;5077197;28;20085;-56
2022/04/08 00:15:52;;;;;;;7.90;1.77;;;7.50;99.90;;;;;;5077043;28;20067;-56
2022/04/08 00:18:19;;;;;;;8.15;2.00;;;7.50;99.90;;;;;;5077117;28;20024;-57
2022/04/08 00:20:45;;;;;;;6.03;1.95;;;7.50;99.90;;;;;;5077399;28;20422;-59
2022/04/08 00:23:11;;;;;;;6.55;1.83;;;7.50;99.90;;;;;;5077613;28;20388;-57
2022/04/08 00:25:37;;;;;;;7.75;2.03;;;7.60;99.90;;;;;;5076974;28;20036;-57
2022/04/08 00:28:03;;;;;;;6.57;2.10;;;7.60;99.90;;;;;;5077054;28;20032;-56
2022/04/08 00:30:29;;;;;;;6.00;1.83;;;7.50;99.90;;;;;;5076966;28;20048;-56
2022/04/08 00:32:58;;;;;;;5.28;1.70;;;7.50;99.90;;;;;;5076994;28;20055;-57
2022/04/08 00:35:25;;;;;;;6.30;2.35;;;7.60;99.90;;;;;;5076154;28;20044;-56
2022/04/08 00:37:51;;;;;;;6.40;2.20;;;7.60;99.90;;;;;;5076276;28;20085;-57
2022/04/08 00:40:17;;;;;;;7.00;1.85;;;7.50;99.90;;;;;;5076013;28;20056;-58
2022/04/08 00:42:44;;;;;;;14.98;2.15;;;7.70;99.90;;;;;;5076865;28;20035;-58
2022/04/08 00:45:10;;;;;;;8.88;1.92;;;7.70;99.90;;;;;;5076199;28;20119;-57
2022/04/08 00:47:41;;;;;;;10.70;1.88;;;7.90;99.90;;;;;;5076865;28;20028;-57
2022/04/08 00:50:12;;;;;;;7.45;1.80;;;7.90;99.90;;;;;;5076813;28;20040;-57
2022/04/08 00:52:44;;;;;;;6.53;2.03;;;8.00;99.90;;;;;;5076808;28;20032;-57
2022/04/08 00:55:10;;;;;;;5.40;1.70;;;8.10;99.90;;;;;;5076627;28;20032;-58
2022/04/08 00:57:36;;;;;;;8.00;2.15;;;7.90;99.90;;;;;;5076301;28;20117;-57
2022/04/08 01:00:10;;;;;;;8.95;2.30;;;7.90;99.90;;;;;;5077172;28;20025;-56
2022/04/08 01:02:36;;;;;;;6.38;1.95;;;8.00;99.90;;;;;;5076687;28;20040;-57
2022/04/08 01:05:04;;;;;;;5.65;1.73;;;8.00;99.90;;;;;;5076633;28;20297;-57
2022/04/08 01:07:31;;;;;;;5.35;2.00;;;7.90;99.90;;;;;;5075886;28;20047;-57
2022/04/08 01:09:57;;;;;;;4.40;1.60;;;7.90;99.90;;;;;;5075895;28;20033;-57
2022/04/08 01:12:23;;;;;;;6.03;2.50;;;7.80;99.90;;;;;;5076593;28;20060;-57
2022/04/08 01:14:59;;;;;;;7.55;2.35;;;7.80;99.90;;;;;;5076533;28;20083;-57
2022/04/08 01:17:25;;;;;;;4.97;1.88;;;8.00;99.90;;;;;;5075831;28;20025;-56
2022/04/08 01:19:52;;;;;;;4.72;1.90;;;7.90;99.90;;;;;;5076810;28;20032;-57
2022/04/08 01:22:21;;;;;;;4.32;1.90;;;7.90;99.90;;;;;;5076282;28;20028;-56
2022/04/08 01:24:51;;;;;;;6.35;2.08;;;8.00;99.90;;;;;;5080257;28;20043;-57
2022/04/08 01:27:19;;;;;;;7.05;1.90;;;7.90;99.90;;;;;;5080198;28;20067;-57
2022/04/08 01:29:45;;;;;;;8.35;1.80;;;7.90;99.90;;;;;;5080155;28;20040;-57
2022/04/08 01:32:11;;;;;;;4.43;1.98;;;7.70;99.90;;;;;;5080133;28;20041;-58
2022/04/08 01:34:37;;;;;;;5.00;1.73;;;7.60;99.90;;;;;;5080022;28;20418;-57
2022/04/08 01:37:03;;;;;;;5.75;1.75;;;7.40;99.90;;;;;;5080066;28;20107;-58
2022/04/08 01:39:29;;;;;;;4.43;1.90;;;7.30;99.90;;;;;;5079691;28;20076;-57
2022/04/08 01:41:55;;;;;;;3.80;2.13;;;7.20;99.90;;;;;;5079966;28;20272;-58
2022/04/08 01:44:21;;;;;;;4.43;2.00;;;7.10;99.90;;;;;;5080013;28;20308;-58
2022/04/08 01:46:47;;;;;;;4.30;2.08;;;7.00;99.90;;;;;;5079850;28;20032;-58
2022/04/08 01:49:13;;;;;;;8.93;2.35;;;7.00;99.90;;;;;;5079198;28;20029;-58
2022/04/08 01:51:39;;;;;;;5.47;2.63;;;6.90;99.90;;;;;;5079725;28;20369;-58
2022/04/08 01:54:05;;;;;;;6.38;2.33;;;6.80;99.90;;;;;;5079082;28;20100;-57
2022/04/08 01:56:31;;;;;;;7.68;3.00;;;6.80;99.90;;;;;;5079612;28;20039;-58
2022/04/08 01:59:00;;;;;;;8.82;2.80;;;6.90;99.90;;;;;;5079778;28;20036;-58
2022/04/08 02:01:26;;;;;;;8.15;3.03;;;6.80;99.90;;;;;;5078829;28;20036;-57
2022/04/08 02:03:52;;;;;;;5.05;2.30;;;6.80;99.90;;;;;;5078899;28;20032;-57
2022/04/08 02:06:17;;;;;;;7.03;2.90;;;6.80;99.90;;;;;;5079684;28;20265;-58
2022/04/08 02:08:43;;;;;;;4.30;2.90;;;6.80;99.90;;;;;;5062236;28;20024;-58
2022/04/08 02:11:09;;;;;;;8.30;3.10;;;6.80;99.90;;;;;;5078877;28;20028;-58
2022/04/08 02:13:35;;;;;;;6.25;3.05;;;6.60;99.90;;;;;;5079833;28;20028;-58
2022/04/08 02:16:01;;;;;;;3.60;2.83;;;6.60;99.90;;;;;;5079200;28;20486;-58
2022/04/08 02:18:27;;;;;;;9.27;3.40;;;6.50;99.90;;;;;;5079684;28;20063;-59
2022/04/08 02:20:53;;;;;;;5.72;3.17;;;6.60;99.90;;;;;;5079676;28;20020;-58
2022/04/08 02:23:18;;;;;;;6.32;2.80;;;6.50;99.90;;;;;;5079246;28;20300;-58
2022/04/08 02:25:46;;;;;;;10.57;3.00;;;6.50;99.90;;;;;;5078467;28;20044;-57
2022/04/08 02:28:12;;;;;;;5.65;2.55;;;6.50;99.90;;;;;;5079166;28;20036;-58
2022/04/08 02:30:38;;;;;;;7.72;2.78;;;6.40;99.90;;;;;;5078683;28;20037;-58
2022/04/08 02:33:04;;;;;;;3.17;2.47;;;6.40;99.90;;;;;;5078805;28;20039;-58
2022/04/08 02:35:31;;;;;;;7.63;2.80;;;6.50;99.90;;;;;;5078862;28;20036;-58
2022/04/08 02:37:57;;;;;;;10.00;3.00;;;6.40;99.90;;;;;;5078928;28;20020;-58
2022/04/08 02:40:23;;;;;;;6.95;2.80;;;6.40;99.90;;;;;;5078717;28;20048;-58
2022/04/08 02:42:49;;;;;;;5.70;2.80;;;6.50;99.90;;;;;;5078828;28;20412;-58
2022/04/08 02:45:14;;;;;;;5.28;2.67;;;6.40;99.90;;;;;;5078298;28;20024;-58
2022/04/08 02:47:44;;;;;;;6.03;2.95;;;6.30;99.90;;;;;;5078750;28;20063;-57
2022/04/08 02:50:10;;;;;;;4.03;2.55;;;6.30;99.90;;;;;;5078687;28;20033;-58
2022/04/08 02:52:37;;;;;;;5.32;2.67;;;6.40;99.90;;;;;;5077928;28;20048;-57
2022/04/08 02:55:04;;;;;;;4.20;2.30;;;6.30;99.90;;;;;;5079115;28;20105;-58
2022/04/08 02:57:29;;;;;;;6.60;2.60;;;6.20;99.90;;;;;;5078550;28;20040;-57
2022/04/08 02:59:56;;;;;;;4.43;2.42;;;6.30;99.90;;;;;;5077787;28;20300;-57
2022/04/08 03:02:22;;;;;;;5.75;2.63;;;6.20;99.90;;;;;;5078471;28;20040;-59
2022/04/08 03:04:48;;;;;;;6.10;2.40;;;6.20;99.90;;;;;;5078422;28;20106;-58
2022/04/08 03:07:13;;;;;;;4.55;2.20;;;6.30;99.90;;;;;;5078629;28;20059;-57
2022/04/08 03:09:39;;;;;;;5.32;2.20;;;6.30;99.90;;;;;;5078657;28;20047;-59
2022/04/08 03:12:05;;;;;;;6.82;2.50;;;6.30;99.90;;;;;;5078304;28;20101;-57
2022/04/08 03:14:31;;;;;;;5.72;2.35;;;6.30;99.90;;;;;;5078110;28;20036;-57
2022/04/08 03:16:58;;;;;;;5.40;2.42;;;6.20;99.90;;;;;;5077749;28;20021;-57
2022/04/08 03:19:23;;;;;;;6.53;2.70;;;6.10;99.90;;;;;;5078699;28;20060;-59
2022/04/08 03:21:49;;;;;;;5.57;2.80;;;6.10;99.90;;;;;;5077998;28;20064;-59
2022/04/08 03:24:16;;;;;;;6.38;2.20;;;6.10;99.90;;;;;;5078046;28;20423;-59
2022/04/08 03:26:42;;;;;;;7.35;2.60;;;6.00;99.90;;;;;;5077946;28;20017;-59
2022/04/08 03:29:08;;;;;;;4.25;2.53;;;5.90;99.90;;;;;;5077888;28;20090;-59
2022/04/08 03:31:34;;;;;;;6.00;2.75;;;6.00;99.90;;;;;;5078190;28;20315;-59
2022/04/08 03:34:00;;;;;;;5.28;2.70;;;6.00;99.90;;;;;;5077840;28;20028;-59
2022/04/08 03:36:26;;;;;;;3.80;2.60;;;6.00;99.90;;;;;;5077341;28;20332;-59
2022/04/08 03:38:51;;;;;;;4.57;2.50;;;5.90;99.90;;;;;;5077190;28;20424;-58
2022/04/08 03:41:17;;;;;;;5.90;2.70;;;5.90;99.90;;;;;;5077574;28;20120;-58
2022/04/08 03:43:43;;;;;;;9.35;2.97;;;5.90;99.90;;;;;;5077937;28;20037;-58
2022/04/08 03:46:09;;;;;;;4.88;2.90;;;5.90;99.90;;;;;;5076927;28;20036;-59
2022/04/08 03:48:34;;;;;;;8.43;3.30;;;6.10;99.90;;;;;;5077595;28;20051;-59
2022/04/08 03:51:00;;;;;;;5.20;2.83;;;6.00;99.90;;;;;;5076820;28;20043;-59
2022/04/08 03:53:26;;;;;;;4.97;3.30;;;5.90;99.90;;;;;;5077558;28;20024;-59
2022/04/08 03:55:52;;;;;;;9.98;3.45;;;5.90;99.90;;;;;;5077341;28;20028;-59
2022/04/08 03:58:18;;;;;;;6.57;3.00;;;5.70;99.90;;;;;;5077505;28;20032;-59
2022/04/08 04:00:43;;;;;;;7.53;2.92;;;5.70;99.90;;;;;;5077900;28;20040;-59
2022/04/08 04:03:10;;;;;;;8.10;3.35;;;5.60;99.90;;;;;;5077377;28;20047;-59
2022/04/08 04:05:35;;;;;;;5.28;3.13;;;5.50;99.90;;;;;;5076806;28;20131;-59
2022/04/08 04:08:02;;;;;;;6.63;3.10;;;5.50;99.90;;;;;;5077867;28;20123;-58
2022/04/08 04:10:28;;;;;;;7.45;3.25;;;5.40;99.90;;;;;;5077185;28;20035;-59
2022/04/08 04:12:53;;;;;;;5.72;4.28;;;5.50;99.90;;;;;;5077189;28;20409;-59
2022/04/08 04:15:20;;;;;;;6.43;5.05;;;5.40;99.90;;;;;;5077184;28;20384;-59
2022/04/08 04:17:46;;;;;;;7.43;4.78;;;5.40;99.90;;;;;;5077176;28;20033;-60
2022/04/08 04:20:12;;;;;;;7.68;4.82;;;5.30;99.90;;;;;;5076975;28;20024;-60
2022/04/08 04:22:38;;;;;;;6.40;4.45;;;5.40;99.90;;;;;;5077114;28;20165;-60
2022/04/08 04:25:05;;;;;;;7.43;4.72;;;5.40;99.90;;;;;;5077083;28;20070;-59
2022/04/08 04:27:31;;;;;;;6.70;5.20;;;5.40;99.90;;;;;;5077151;28;20036;-60
2022/04/08 04:29:56;;;;;;;7.32;4.85;;;5.40;99.90;;;;;;5076908;28;20035;-59
2022/04/08 04:32:22;;;;;;;8.77;5.22;;;5.40;99.90;;;;;;5076937;28;20094;-59
2022/04/08 04:34:48;;;;;;;8.57;4.85;;;5.50;99.90;;;;;;5076848;28;20036;-58
2022/04/08 04:37:14;;;;;;;10.70;5.05;;;5.70;99.90;;;;;;5077018;28;20055;-59
2022/04/08 04:39:40;;;;;;;12.43;4.60;;;5.60;99.90;;;;;;5076763;28;20083;-59
2022/04/08 04:42:07;;;;;;;11.70;4.80;;;5.60;99.90;;;;;;5076109;28;20025;-59
2022/04/08 04:44:34;;;;;;;6.22;4.53;;;5.50;99.90;;;;;;5076795;28;20040;-59
2022/04/08 04:47:00;;;;;;;7.65;5.13;;;5.50;99.90;;;;;;5076802;28;20032;-59
2022/04/08 04:49:26;;;;;;;10.10;4.97;;;5.60;99.90;;;;;;5076812;28;20289;-59
2022/04/08 04:51:52;;;;;;;11.02;5.15;;;5.50;99.90;;;;;;5076764;28;20033;-60
2022/04/08 04:54:18;;;;;;;7.35;4.80;;;5.60;99.90;;;;;;5076772;28;20032;-60
2022/04/08 04:56:44;;;;;;;7.55;4.93;;;5.50;99.90;;;;;;5078096;28;20025;-60
2022/04/08 04:59:11;;;;;;;6.97;4.63;;;5.40;99.90;;;;;;5081117;28;20050;-59
2022/04/08 05:01:37;;;;;;;9.30;4.95;;;5.50;99.90;;;;;;5080710;28;20024;-58
2022/04/08 05:04:03;;;;;;;9.27;5.65;;;5.50;99.90;;;;;;5080813;28;20032;-59
2022/04/08 05:06:28;;;;;;;7.30;5.20;;;5.50;99.90;;;;;;5080620;28;20067;-59
2022/04/08 05:08:54;;;;;;;6.93;5.90;;;5.50;99.90;;;;;;5081237;28;20408;-58
2022/04/08 05:11:20;;;;;;;10.93;6.35;;;5.40;99.90;;;;;;5080594;28;20064;-59
2022/04/08 05:13:46;;;;;;;11.85;7.00;;;5.30;99.90;;;;;;5080376;28;20075;-59
2022/04/08 05:16:11;;;;;;;12.65;7.28;;;5.30;99.90;;;;;;5079516;28;20120;-59
2022/04/08 05:18:37;;;;;;;9.23;6.97;;;5.30;99.90;;;;;;5079784;28;20040;-59
2022/04/08 05:21:04;;;;;;;11.68;7.25;;;5.20;99.90;;;;;;5080678;28;20406;-59
2022/04/08 05:23:30;;;;;;;10.15;7.70;;;5.20;99.90;;;;;;5080255;28;20097;-59
2022/04/08 05:25:57;;;;;;;13.45;8.02;;;5.20;99.90;;;;;;5080742;28;20083;-59
2022/04/08 05:28:23;;;;;;;11.35;7.40;;;5.30;99.90;;;;;;5080261;28;20043;-59
2022/04/08 05:30:49;;;;;;;13.25;7.90;;;5.30;99.90;;;;;;5080375;28;20043;-59
2022/04/08 05:33:15;;;;;;;12.07;7.35;;;5.30;99.90;;;;;;5080222;28;20400;-61
2022/04/08 05:35:41;;;;;;;12.75;7.13;;;5.30;99.90;;;;;;5080533;28;20040;-58
2022/04/08 05:38:08;;;;;;;11.98;6.88;;;5.30;99.90;;;;;;5080067;28;20077;-59
2022/04/08 05:40:34;;;;;;;8.55;5.95;;;5.30;99.90;;;;;;5079861;28;20404;-58
2022/04/08 05:43:00;;;;;;;13.15;6.45;;;5.40;99.90;;;;;;5079316;28;20028;-59
2022/04/08 05:45:26;;;;;;;11.55;6.78;;;5.70;99.90;;;;;;5080525;28;20040;-60
2022/04/08 05:47:54;;;;;;;10.75;6.13;;;5.50;99.90;;;;;;5079158;28;20028;-60
2022/04/08 05:50:21;;;;;;;7.45;6.15;;;5.50;99.90;;;;;;5047343;28;20043;-60
2022/04/08 05:52:48;;;;;;;7.53;5.80;;;5.50;99.90;;;;;;5078958;28;20040;-60
2022/04/08 05:55:14;;;;;;;9.82;5.78;;;5.60;99.90;;;;;;5078917;28;20033;-60
2022/04/08 05:57:41;;;;;;;8.75;5.82;;;5.50;99.90;;;;;;5079708;28;20038;-59
2022/04/08 06:00:10;;;;;;;11.13;5.78;;;5.50;99.90;;;;;;5062246;28;20020;-60
2022/04/08 06:02:37;;;;;;;8.63;5.30;;;5.50;99.90;;;;;;5078742;28;20040;-60
2022/04/08 06:05:03;;;;;;;9.68;4.97;;;5.50;99.90;;;;;;5078938;28;20035;-61
2022/04/08 06:07:29;;;;;;;7.30;4.68;;;5.50;99.90;;;;;;5079455;28;20057;-60
2022/04/08 06:09:59;;;;;;;7.70;4.85;;;5.60;99.90;;;;;;5078898;28;20416;-61
2022/04/08 06:12:24;;;;;;;7.32;4.53;;;5.70;99.90;;;;;;5079481;28;20036;-60
2022/04/08 06:14:50;;;;;;;7.32;4.53;;;5.80;99.90;;;;;;5078541;28;20109;-58
2022/04/08 06:17:16;;;;;;;8.57;3.67;;;5.80;99.90;;;;;;5079484;28;20036;-59
2022/04/08 06:19:45;;;;;;;5.75;3.92;;;5.90;99.90;;;;;;5061996;28;20040;-61
2022/04/08 06:22:11;;;;;;;8.77;4.20;;;5.90;99.90;;;;;;5079439;28;20047;-60
2022/04/08 06:24:37;;;;;;;7.75;3.72;;;5.90;99.90;;;;;;5079191;28;20309;-61
2022/04/08 06:27:03;;;;;;;6.85;3.83;;;6.00;99.90;;;;;;5078438;28;20047;-61
2022/04/08 06:29:29;;;;;;;8.98;3.55;;;6.00;99.90;;;;;;5078736;28;20133;-61
2022/04/08 06:31:55;;;;;;;7.88;3.60;;;6.00;99.90;;;;;;5079344;28;20041;-61
2022/04/08 06:34:21;;;;;;;8.90;3.50;;;6.10;99.90;;;;;;5078496;28;20300;-60
2022/04/08 06:36:47;;;;;;;4.88;3.33;;;6.20;99.90;;;;;;5078266;28;20046;-61
2022/04/08 06:39:12;;;;;;;6.63;4.00;;;6.10;99.90;;;;;;5028298;28;20028;-61
2022/04/08 06:41:38;;;;;;;9.68;3.65;;;6.10;99.90;;;;;;5078168;28;20029;-60
2022/04/08 06:44:04;;;;;;;7.28;3.58;;;6.20;99.90;;;;;;5078599;28;20063;-60
2022/04/08 06:46:30;;;;;;;12.27;3.63;;;6.20;99.90;;;;;;5078189;28;20032;-61
2022/04/08 06:48:58;;;;;;;6.72;3.00;;;6.10;99.90;;;;;;5078157;28;20024;-60
2022/04/08 06:51:24;;;;;;;10.27;3.05;;;6.10;99.90;;;;;;5061648;28;20032;-60
2022/04/08 06:53:50;;;;;;;9.98;3.40;;;6.30;99.90;;;;;;5078553;28;20123;-60
2022/04/08 06:56:15;;;;;;;7.80;3.35;;;6.20;99.90;;;;;;5078534;28;20186;-60
2022/04/08 06:58:41;;;;;;;7.65;3.28;;;6.40;99.90;;;;;;5061100;28;20123;-60
2022/04/08 07:01:07;;;;;;;10.10;3.50;;;6.50;99.90;;;;;;5077963;28;20038;-59
2022/04/08 07:03:33;;;;;;;11.70;3.20;;;6.60;99.90;;;;;;5077662;28;20373;-59
2022/04/08 07:06:00;;;;;;;6.65;3.08;;;6.70;99.90;;;;;;5077516;28;20453;-60
2022/04/08 07:08:25;;;;;;;7.50;3.25;;;6.70;99.90;;;;;;5077711;28;20039;-59
2022/04/08 07:10:51;;;;;;;7.30;3.42;;;6.70;99.90;;;;;;5078809;28;20120;-60
2022/04/08 07:13:17;;;;;;;4.72;2.60;;;6.90;99.90;;;;;;5077488;28;20032;-60
2022/04/08 07:15:43;;;;;;;9.48;2.92;;;6.80;99.90;;;;;;5077418;28;20032;-60
2022/04/08 07:18:08;;;;;;;10.50;3.10;;;6.90;99.90;;;;;;5060748;28;20123;-61
2022/04/08 07:20:34;;;;;;;6.53;2.38;;;6.90;99.90;;;;;;5076316;28;20281;-60
2022/04/08 07:23:02;;;;;;;8.88;3.00;;;6.90;99.90;;;;;;5077968;28;20032;-59
2022/04/08 07:25:29;;;;;;;6.28;2.72;;;6.90;99.90;;;;;;5078033;28;20116;-61
2022/04/08 07:28:01;;;;;;;6.30;3.03;;;6.80;99.90;;;;;;5077923;28;20029;-60
2022/04/08 07:30:28;;;;;;;9.50;2.55;;;6.90;99.90;;;;;;5077777;28;20028;-59
2022/04/08 07:32:54;;;;;;;8.93;2.90;;;7.00;99.90;;;;;;5077132;28;20043;-58
2022/04/08 07:35:30;;;;;;;5.38;2.65;;;6.90;99.90;;;;;;5077052;28;20107;-60
2022/04/08 07:37:57;;;;;;;7.65;2.70;;;7.10;99.90;;;;;;5077137;28;20486;-60
2022/04/08 07:40:23;;;;;;;6.13;2.60;;;7.10;99.90;;;;;;5077616;28;20408;-59
2022/04/08 07:42:55;;;;;;;6.53;2.60;;;7.00;99.90;;;;;;5135868;27;20445;-59
2022/04/08 07:45:27;;;;;;;7.03;2.50;;;7.30;99.90;;;;;;5152738;27;20190;-59
2022/04/08 07:47:55;;;;;;;6.53;2.42;;;7.40;99.90;;;;;;5118528;28;20019;-59
2022/04/08 07:50:21;;;;;;;5.35;2.20;;;7.60;99.90;;;;;;5135287;28;20123;-59
2022/04/08 07:52:46;;;;;;;6.13;2.22;;;7.60;99.90;;;;;;5135209;28;20114;-59
2022/04/08 07:55:13;;;;;;;7.07;2.08;;;7.80;99.90;;;;;;5134545;27;20082;-60
2022/04/08 07:57:51;;;;;;;5.43;2.00;;;7.60;99.90;;;;;;5134997;28;20067;-60
2022/04/08 08:00:19;;;;;;;9.30;2.15;;;7.60;99.90;;;;;;5135641;28;20068;-60
2022/04/08 08:02:45;;;;;;;4.47;1.73;;;7.60;99.90;;;;;;5134865;28;20138;-60
2022/04/08 08:05:12;;;;;;;10.70;2.15;;;7.50;99.90;;;;;;5135073;28;20019;-60
2022/04/08 08:07:48;;;;;;;5.93;2.03;;;7.60;99.90;;;;;;5134817;28;20306;-60
2022/04/08 08:10:15;;;;;;;6.45;2.05;;;7.80;99.90;;;;;;5151492;27;20028;-61
2022/04/08 08:12:41;;;;;;;4.50;1.80;;;7.90;99.90;;;;;;5116872;28;20040;-61
2022/04/08 08:15:08;;;;;;;5.40;1.60;;;8.00;99.90;;;;;;5134793;28;20098;-61
2022/04/08 08:17:34;;;;;;;5.57;2.00;;;8.10;99.90;;;;;;5117084;28;20100;-60
2022/04/08 08:20:00;;;;;;;8.93;1.70;;;7.90;99.90;;;;;;5117565;28;20027;-60
2022/04/08 08:22:25;;;;;;;4.95;1.85;;;7.70;99.90;;;;;;5134525;28;20056;-60
2022/04/08 08:24:51;;;;;;;6.90;1.80;;;7.80;99.90;;;;;;5099913;28;20069;-61
2022/04/08 08:27:17;;;;;;;8.85;1.80;;;7.70;99.90;;;;;;5116790;28;20345;-60
2022/04/08 08:29:43;;;;;;;5.68;1.58;;;8.00;99.90;;;;;;5117338;28;20119;-60
2022/04/08 08:32:09;;;;;;;7.97;1.83;;;8.30;99.90;;;;;;5116640;28;20085;-59
2022/04/08 08:34:34;;;;;;;5.25;1.45;;;8.40;99.90;;;;;;5150886;27;20055;-60
2022/04/08 08:37:00;;;;;;;6.80;1.85;;;8.70;99.90;;;;;;5116621;28;20412;-59
2022/04/08 08:39:27;;;;;;;5.75;1.92;;;8.90;99.90;;;;;;5150935;27;20028;-60
2022/04/08 08:41:55;;;;;;;4.72;1.80;;;8.40;99.90;;;;;;5116081;28;20147;-60
2022/04/08 08:44:21;;;;;;;5.30;1.73;;;8.50;99.90;;;;;;5134220;28;20038;-61
2022/04/08 08:46:49;;;;;;;15.82;2.00;;;8.60;99.90;;;;;;5116705;28;20031;-60
2022/04/08 08:49:18;;;;;;;7.20;1.58;;;8.70;99.90;;;;;;5134119;28;20019;-60
2022/04/08 08:51:50;;;;;;;5.57;1.70;;;8.60;99.90;;;;;;5134358;28;20111;-61
2022/04/08 08:54:16;;;;;;;6.10;1.40;;;8.50;99.90;;;;;;5120436;28;20036;-59
2022/04/08 08:56:42;;;;;;;4.75;1.55;;;8.30;99.90;;;;;;5120141;28;20032;-61
2022/04/08 08:59:09;;;;;;;6.75;2.72;;;8.40;99.90;;;;;;5102468;28;20104;-60
2022/04/08 09:01:35;;;;;;;7.90;1.77;;;8.60;99.90;;;;;;5120704;28;20321;-60
2022/04/08 09:04:01;;;;;;;9.52;1.80;;;8.60;99.90;;;;;;5120183;28;20027;-60
2022/04/08 09:06:26;;;;;;;5.57;1.83;;;8.50;99.90;;;;;;5120065;28;20039;-59
2022/04/08 09:08:57;;;;;;;3.25;1.50;;;8.30;99.90;;;;;;5102554;28;20034;-60
2022/04/08 09:11:27;;;;;;;3.47;1.33;;;8.40;99.90;;;;;;5120071;28;20081;-59
2022/04/08 09:14:01;;;;;;;4.25;1.38;;;8.30;99.90;;;;;;5119988;28;20027;-61
2022/04/08 09:16:27;;;;;;;4.18;1.40;;;8.30;99.90;;;;;;5120391;28;20295;-60
2022/04/08 09:18:54;;;;;;;4.88;1.45;;;8.30;99.90;;;;;;5102443;28;20127;-61
2022/04/08 09:21:26;;;;;;;4.22;1.73;;;8.40;99.90;;;;;;5118889;28;20298;-60
2022/04/08 09:23:52;;;;;;;4.15;1.45;;;8.30;99.90;;;;;;5136224;27;20126;-60
2022/04/08 09:26:19;;;;;;;5.82;1.83;;;8.20;99.90;;;;;;5119761;28;20024;-61
2022/04/08 09:28:45;;;;;;;6.00;1.40;;;8.10;99.90;;;;;;5119025;28;20032;-61
2022/04/08 09:31:19;;;;;;;6.10;1.63;;;8.30;99.90;;;;;;5101950;28;20079;-60
2022/04/08 09:33:53;;;;;;;5.18;1.45;;;8.40;99.90;;;;;;5119661;28;20032;-61
2022/04/08 09:36:32;;;;;;;5.20;1.23;;;8.40;99.90;;;;;;5119930;28;20039;-59
2022/04/08 09:38:59;;;;;;;4.15;1.40;;;8.30;99.90;;;;;;5136007;27;20027;-61
2022/04/08 09:41:45;;;;;;;7.95;1.50;;;8.40;99.90;;;;;;5119165;28;20104;-58
2022/04/08 09:44:13;;;;;;;4.32;1.50;;;8.70;99.90;;;;;;5135757;27;20379;-61
2022/04/08 09:46:40;;;;;;;3.60;1.40;;;8.70;99.90;;;;;;5119402;28;20056;-60
2022/04/08 09:49:07;;;;;;;7.93;1.70;;;8.90;99.90;;;;;;5101756;28;20034;-61
2022/04/08 09:51:40;;;;;;;5.40;1.45;;;9.10;99.90;;;;;;5101817;28;20051;-60
2022/04/08 09:54:10;;;;;;;8.90;1.40;;;9.50;99.90;;;;;;5119013;28;20036;-60
2022/04/08 09:56:37;;;;;;;3.95;1.40;;;9.70;99.90;;;;;;5084707;28;20036;-60
2022/04/08 09:59:05;;;;;;;2.25;1.13;;;9.40;99.90;;;;;;5119048;28;20020;-60
2022/04/08 10:01:33;;;;;;;3.97;1.33;;;9.30;99.90;;;;;;5118797;28;20035;-60
2022/04/08 10:04:01;;;;;;;5.35;1.40;;;9.10;99.90;;;;;;5118386;28;20397;-60
2022/04/08 10:06:27;;;;;;;4.20;1.20;;;9.00;99.90;;;;;;5118395;28;20389;-60
2022/04/08 10:08:54;;;;;;;4.40;1.30;;;9.10;99.90;;;;;;5118838;28;20023;-60
2022/04/08 10:11:28;;;;;;;3.50;1.00;;;9.10;99.90;;;;;;5135637;27;20032;-61
2022/04/08 10:14:08;;;;;;;4.45;1.30;;;9.20;99.90;;;;;;5135358;27;20307;-61
2022/04/08 10:16:38;;;;;;;4.07;1.02;;;9.00;99.90;;;;;;5118795;28;20074;-61
2022/04/08 10:19:07;;;;;;;4.18;1.00;;;8.80;99.90;;;;;;5118683;28;20032;-59
2022/04/08 10:21:38;;;;;;;5.55;1.35;;;8.80;99.90;;;;;;5118613;28;20024;-61
2022/04/08 10:24:13;;;;;;;3.40;1.00;;;8.80;99.90;;;;;;5117666;28;20031;-60
2022/04/08 10:27:09;;;;;;;5.38;1.20;;;9.00;99.90;;;;;;5118578;28;20288;-61
2022/04/08 10:29:36;;;;;;;4.00;1.00;;;9.30;99.90;;;;;;5118464;28;20032;-61
2022/04/08 10:32:05;;;;;;;4.70;1.10;;;9.50;99.90;;;;;;5100755;28;20023;-61
2022/04/08 10:34:32;;;;;;;6.68;1.33;;;9.90;99.90;;;;;;5100975;28;20082;-61
2022/04/08 10:37:14;;;;;;;10.23;1.58;;;10.10;99.90;;;;;;5117536;28;20043;-62
2022/04/08 10:39:42;;;;;;;3.97;1.30;;;10.40;99.90;;;;;;5117547;28;20039;-61
2022/04/08 10:42:22;;;;;;;5.65;1.30;;;10.20;99.90;;;;;;5117241;28;20143;-62
2022/04/08 10:44:48;;;;;;;4.78;1.27;;;10.20;99.90;;;;;;5118164;28;20298;-61
2022/04/08 10:47:21;;;;;;;4.55;1.20;;;9.70;99.90;;;;;;5118232;28;20031;-61
2022/04/08 10:50:02;;;;;;;9.18;1.30;;;9.40;99.90;;;;;;5118020;28;20118;-62
2022/04/08 10:52:30;;;;;;;5.43;1.23;;;9.50;99.90;;;;;;5118153;28;20069;-61
2022/04/08 10:55:12;;;;;;;6.15;1.33;;;9.70;99.90;;;;;;5117894;28;20051;-60
2022/04/08 10:57:41;;;;;;;6.30;1.10;;;10.10;99.90;;;;;;5117910;28;20047;-61
2022/04/08 11:00:12;;;;;;;3.33;1.10;;;10.60;99.90;;;;;;5117244;28;20071;-61
2022/04/08 11:02:39;;;;;;;2.47;0.88;;;10.80;99.90;;;;;;5117746;28;20032;-61
2022/04/08 11:05:11;;;;;;;2.55;0.90;;;10.70;99.90;;;;;;5117838;28;20057;-59
2022/04/08 11:07:49;;;;;;;3.78;1.23;;;9.80;99.90;;;;;;5117835;28;20031;-60
2022/04/08 11:10:17;;;;;;;6.05;1.20;;;9.50;99.90;;;;;;5117737;28;20031;-60
2022/04/08 11:12:48;;;;;;;4.80;1.10;;;9.60;99.90;;;;;;5117663;28;20331;-60
2022/04/08 11:15:16;;;;;;;5.13;1.10;;;10.10;99.90;;;;;;5099889;28;20028;-60
2022/04/08 11:17:42;;;;;;;2.75;0.98;;;10.60;99.90;;;;;;5117551;28;20019;-61
2022/04/08 11:20:10;;;;;;;7.35;1.20;;;11.00;99.90;;;;;;5116882;28;20035;-60
2022/04/08 11:22:44;;;;;;;5.40;1.48;;;10.70;99.90;;;;;;5117462;28;20371;-61
2022/04/08 11:25:18;;;;;;;5.15;0.85;;;10.50;99.90;;;;;;5116826;28;20023;-61
2022/04/08 11:27:44;;;;;;;3.22;0.90;;;10.20;99.90;;;;;;5117417;28;20115;-60
2022/04/08 11:30:10;;;;;;;3.35;1.02;;;10.60;99.90;;;;;;5116739;28;20016;-61
2022/04/08 11:32:39;;;;;;;7.38;1.27;;;11.10;99.90;;;;;;5117219;28;20019;-61
2022/04/08 11:35:12;;;;;;;4.93;1.10;;;11.10;99.90;;;;;;5116456;28;20196;-61
2022/04/08 11:37:38;;;;;;;4.97;0.70;;;11.30;99.90;;;;;;5117293;28;20046;-61
2022/04/08 11:40:05;;;;;;;6.90;1.27;;;11.40;99.90;;;;;;5117894;28;20031;-59
2022/04/08 11:42:31;;;;;;;4.93;1.08;;;11.80;99.90;;;;;;5117021;28;20040;-60
2022/04/08 11:44:57;;;;;;;6.22;1.30;;;12.00;99.90;;;;;;5116686;28;20023;-61
2022/04/08 11:47:31;;;;;;;5.70;1.08;;;12.00;99.90;;;;;;5099606;28;20123;-60
2022/04/08 11:50:24;;;;;;;4.68;0.98;;;12.20;99.90;;;;;;5099556;28;20031;-61
2022/04/08 11:52:58;;;;;;;6.28;1.10;;;11.60;99.90;;;;;;5089368;28;20035;-60
2022/04/08 11:55:25;;;;;;;4.35;0.98;;;11.30;99.90;;;;;;5099595;28;20031;-61
2022/04/08 11:57:52;;;;;;;3.90;1.20;;;10.70;99.90;;;;;;5117212;28;20040;-61
2022/04/08 12:00:27;;;;;;;4.32;1.00;;;10.60;99.90;;;;;;5116469;28;20346;-61
2022/04/08 12:02:58;;;;;;;5.50;1.33;;;11.10;99.90;;;;;;5116301;28;20106;-61
2022/04/08 12:05:29;;;;;;;5.25;1.27;;;11.50;99.90;;;;;;5117728;28;20032;-61
2022/04/08 12:07:57;;;;;;;3.83;1.10;;;11.90;99.90;;;;;;5117125;28;20038;-61
2022/04/08 12:10:24;;;;;;;4.43;1.23;;;12.20;99.90;;;;;;5117059;28;20051;-60
2022/04/08 12:12:50;;;;;;;4.32;1.17;;;12.50;99.90;;;;;;5116231;28;20031;-60
2022/04/08 12:15:21;;;;;;;4.05;1.20;;;12.40;99.90;;;;;;5116893;28;20028;-60
2022/04/08 12:17:47;;;;;;;3.90;1.20;;;12.30;99.90;;;;;;5117045;28;20088;-61
2022/04/08 12:20:15;;;;;;;3.75;1.20;;;12.40;99.90;;;;;;5117088;28;20077;-60
2022/04/08 12:22:41;;;;;;;4.95;1.45;;;12.50;99.90;;;;;;5116745;28;20180;-59
2022/04/08 12:25:08;;;;;;;4.47;1.10;;;12.80;99.90;;;;;;5117011;28;20035;-60
2022/04/08 12:27:34;;;;;;;4.45;1.30;;;12.80;99.90;;;;;;5116336;28;20172;-60
2022/04/08 12:30:10;;;;;;;6.25;1.50;;;13.10;99.90;;;;;;5120880;28;20027;-59
2022/04/08 12:32:42;;;;;;;3.22;0.95;;;13.20;99.90;;;;;;5119935;28;20035;-59
2022/04/08 12:35:12;;;;;;;7.30;1.42;;;13.30;99.90;;;;;;5103081;28;20035;-61
2022/04/08 12:37:39;;;;;;;5.70;1.33;;;13.30;99.90;;;;;;5103057;28;20088;-58
2022/04/08 12:40:06;;;;;;;5.05;1.30;;;13.50;99.90;;;;;;5119852;28;20093;-62
2022/04/08 12:42:38;;;;;;;5.30;1.20;;;13.20;99.90;;;;;;5102488;28;20047;-60
2022/04/08 12:45:05;;;;;;;9.35;1.65;;;12.90;99.90;;;;;;5120207;28;20023;-58
2022/04/08 12:47:31;;;;;;;3.10;1.10;;;12.90;99.90;;;;;;5120407;28;20395;-60
2022/04/08 12:49:57;;;;;;;2.97;1.40;;;13.00;99.90;;;;;;5102571;28;20032;-62
2022/04/08 12:52:24;;;;;;;5.03;1.50;;;13.10;99.90;;;;;;5119450;28;20035;-60
2022/04/08 12:54:49;;;;;;;6.15;1.48;;;13.30;99.90;;;;;;5120391;28;20047;-65
2022/04/08 12:57:18;;;;;;;2.80;1.33;;;13.30;99.90;;;;;;5102522;28;20027;-62